Terminal Aerodrome Forecast
Issued by NWS

Home | Current Version | Previous Version | Text Only | Print | Product List | Glossary On
Versions: 1 2 3 4 5 6 7 8 9 10 11 12 13 14 15 16 17 18
000
FTUS43 KABR 120500
TAFATY
TAF
KATY 120524Z 1206/1306 01003KT P6SM SKC
     FM121200 03006KT P6SM -SHRA VCTS SCT040CB OVC070
     FM121600 03010KT P6SM -RA BKN035
     FM122100 01010KT P6SM OVC035=

USA.gov is the U.S. government's official web portal to all federal, state and local government web resources and services.